createdAt,value
2018-11-01T00:00:46.425Z,99506.52
2018-11-01T00:03:19.196Z,99507.03
2018-11-01T00:05:50.853Z,99509.35
2018-11-01T00:08:23.386Z,99512.97
2018-11-01T00:10:54.667Z,99512.06
2018-11-01T00:13:27.655Z,99500.69
2018-11-01T00:15:59.823Z,99511.92
2018-11-01T00:18:31.346Z,99509.05
2018-11-01T00:21:03.373Z,99509.02
2018-11-01T00:23:34.576Z,99498.26
2018-11-01T00:26:05.916Z,99495.03
2018-11-01T00:28:38.066Z,99495.13
2018-11-01T00:31:09.847Z,99506.36
2018-11-01T00:33:41.178Z,99505.42
2018-11-01T00:36:12.354Z,99495.00
2018-11-01T00:38:43.654Z,99497.79
2018-11-01T00:41:14.837Z,99451.63
2018-11-01T00:43:46.009Z,99501.56
2018-11-01T00:46:17.173Z,99508.59
2018-11-01T00:48:48.731Z,99502.45
2018-11-01T00:51:21.477Z,99393.64
2018-11-01T00:53:52.759Z,99518.14
2018-11-01T00:56:24.002Z,99520.58
2018-11-01T00:58:55.322Z,99522.45
2018-11-01T01:01:26.541Z,99519.31
2018-11-01T01:03:58.067Z,99525.94
2018-11-01T01:06:29.262Z,99519.20
2018-11-01T01:09:00.713Z,99508.15
2018-11-01T01:11:31.973Z,99511.98
2018-11-01T01:14:03.237Z,99515.57
2018-11-01T01:16:34.438Z,99517.64
2018-11-01T01:19:08.868Z,99512.00
2018-11-01T01:21:40.419Z,99509.12
2018-11-01T01:24:18.552Z,99501.27
2018-11-01T01:26:53.916Z,99498.94
2018-11-01T01:29:26.543Z,99499.34
2018-11-01T01:32:00.694Z,99505.47
2018-11-01T01:34:32.103Z,99496.20
2018-11-01T01:37:03.711Z,99419.77
2018-11-01T01:39:34.900Z,99493.07
2018-11-01T01:42:06.119Z,99498.72
2018-11-01T01:44:37.944Z,99507.53
2018-11-01T01:47:09.113Z,99501.34
2018-11-01T01:49:44.033Z,99441.19
2018-11-01T01:52:17.127Z,99498.98
2018-11-01T01:54:48.443Z,99492.50
2018-11-01T01:57:20.344Z,99479.71
2018-11-01T01:59:52.977Z,99466.70
2018-11-01T02:02:29.854Z,99488.33
2018-11-01T02:05:03.860Z,99484.63
2018-11-01T02:07:37.204Z,99479.38
2018-11-01T02:10:11.994Z,99467.50
2018-11-01T02:12:47.265Z,99459.70
2018-11-01T02:15:22.597Z,99451.77
2018-11-01T02:17:53.760Z,99441.23
2018-11-01T02:20:38.978Z,99435.88
2018-11-01T02:23:11.917Z,99431.59
2018-11-01T02:25:44.854Z,99425.66
2018-11-01T02:32:41.487Z,99435.22
2018-11-01T02:35:19.443Z,99344.94
2018-11-01T02:37:56.571Z,99441.81
2018-11-01T02:40:28.563Z,99451.41
2018-11-01T02:42:59.827Z,99448.11
2018-11-01T02:45:35.244Z,99454.31
2018-11-01T02:48:06.744Z,99444.50
2018-11-01T02:50:38.730Z,99436.45
2018-11-01T02:53:11.709Z,99425.11
2018-11-01T02:55:42.854Z,99433.48
2018-11-01T02:58:13.325Z,99440.55
2018-11-01T03:00:44.669Z,99438.98
2018-11-01T03:03:17.317Z,99436.83
2018-11-01T03:05:49.396Z,99438.23
2018-11-01T03:08:20.262Z,99437.45
2018-11-01T03:10:51.665Z,99425.79
2018-11-01T03:13:23.780Z,99425.28
2018-11-01T03:15:56.177Z,99411.05
2018-11-01T03:18:29.500Z,99398.67
2018-11-01T03:20:59.884Z,99297.06
2018-11-01T03:23:32.456Z,99381.28
2018-11-01T03:26:06.279Z,99394.76
2018-11-01T03:28:37.594Z,99397.19
2018-11-01T03:31:09.923Z,99395.28
2018-11-01T03:33:41.497Z,99393.33
2018-11-01T03:36:12.603Z,99385.77
2018-11-01T03:38:44.630Z,99387.34
2018-11-01T03:41:15.054Z,99372.01
2018-11-01T03:43:46.335Z,99380.64
2018-11-01T03:46:17.433Z,99395.79
2018-11-01T03:48:49.017Z,99396.88
2018-11-01T03:51:20.101Z,99386.45
2018-11-01T03:53:52.259Z,99382.88
2018-11-01T03:56:23.416Z,99380.36
2018-11-01T03:58:54.614Z,99386.94
2018-11-01T04:01:26.334Z,99384.95
2018-11-01T04:03:59.582Z,99393.77
2018-11-01T04:06:37.421Z,99388.44
2018-11-01T04:09:10.818Z,99388.17
2018-11-01T04:11:42.361Z,99378.35
2018-11-01T04:14:13.497Z,99364.80
2018-11-01T04:16:44.717Z,99361.58
2018-11-01T04:19:15.997Z,99372.33
2018-11-01T04:21:52.276Z,99369.75
2018-11-01T04:24:23.716Z,99358.36
2018-11-01T04:26:55.628Z,99362.32
2018-11-01T04:29:26.826Z,99367.55
2018-11-01T04:31:58.989Z,99360.72
2018-11-01T04:34:30.070Z,99368.86
2018-11-01T04:37:01.227Z,99382.56
2018-11-01T04:39:32.103Z,99373.08
2018-11-01T04:42:03.237Z,99385.23
2018-11-01T04:44:34.689Z,99378.28
2018-11-01T04:47:05.850Z,99384.94
2018-11-01T04:49:36.921Z,99387.25
2018-11-01T04:52:08.471Z,99384.25
2018-11-01T04:54:38.722Z,99374.52
2018-11-01T04:57:10.106Z,99308.17
2018-11-01T04:59:41.562Z,99369.83
2018-11-01T05:02:12.721Z,99371.84
2018-11-01T05:04:44.953Z,99363.39
2018-11-01T05:07:15.244Z,99359.20
2018-11-01T05:09:46.312Z,99349.41
2018-11-01T05:12:17.889Z,99342.67
2018-11-01T05:14:48.181Z,99330.73
2018-11-01T05:17:21.369Z,99341.19
2018-11-01T05:19:52.521Z,99349.41
2018-11-01T05:22:23.696Z,99335.85
2018-11-01T05:24:55.202Z,99324.09
2018-11-01T05:27:27.242Z,99323.59
2018-11-01T05:29:58.478Z,99336.61
2018-11-01T05:32:29.469Z,99331.26
2018-11-01T05:35:00.872Z,99337.27
2018-11-01T05:37:31.476Z,99340.03
2018-11-01T05:40:02.659Z,99338.42
2018-11-01T05:42:34.772Z,99339.20
2018-11-01T05:45:05.150Z,99353.94
2018-11-01T05:47:37.430Z,99358.17
2018-11-01T05:50:10.917Z,99355.89
2018-11-01T05:52:41.309Z,99356.09
2018-11-01T05:55:13.537Z,99352.64
2018-11-01T05:57:46.713Z,99365.98
2018-11-01T06:00:17.098Z,99367.59
2018-11-01T06:02:51.558Z,99361.14
2018-11-01T06:05:22.607Z,99370.72
2018-11-01T06:07:59.689Z,99373.63
2018-11-01T06:10:30.924Z,99361.22
2018-11-01T06:13:04.356Z,99365.97
2018-11-01T06:15:34.779Z,99366.37
2018-11-01T06:18:06.376Z,99355.71
2018-11-01T06:20:37.501Z,99372.38
2018-11-01T06:23:08.081Z,99245.69
2018-11-01T06:25:37.373Z,99269.19
2018-11-01T06:28:09.077Z,99347.23
2018-11-01T06:30:40.046Z,99343.14
2018-11-01T06:33:12.385Z,99315.20
2018-11-01T06:35:53.233Z,99336.50
2018-11-01T06:38:23.888Z,99335.99
2018-11-01T06:40:55.144Z,99330.61
2018-11-01T06:43:25.645Z,99335.83
2018-11-01T06:45:57.465Z,99348.64
2018-11-01T06:48:27.774Z,99341.42
2018-11-01T06:51:00.206Z,99335.67
2018-11-01T06:53:36.626Z,99343.60
2018-11-01T06:56:07.757Z,99344.11
2018-11-01T06:58:38.972Z,99339.61
2018-11-01T07:01:09.274Z,99354.80
2018-11-01T07:03:40.361Z,99350.72
2018-11-01T07:06:10.692Z,99359.98
2018-11-01T07:08:41.405Z,99357.66
2018-11-01T07:11:13.495Z,99356.97
2018-11-01T07:13:44.712Z,99349.97
2018-11-01T07:16:15.964Z,99352.34
2018-11-01T07:18:48.323Z,99342.73
2018-11-01T07:21:21.431Z,99339.13
2018-11-01T07:23:57.469Z,99334.20
2018-11-01T07:26:38.083Z,99329.21
2018-11-01T07:29:08.444Z,99320.86
2018-11-01T07:31:39.516Z,99320.05
2018-11-01T07:34:14.213Z,99269.78
2018-11-01T07:36:44.461Z,99305.59
2018-11-01T07:39:16.385Z,99304.77
2018-11-01T07:41:46.672Z,99303.84
2018-11-01T07:44:17.917Z,99302.16
2018-11-01T07:46:48.495Z,99300.95
2018-11-01T07:49:18.736Z,99301.77
2018-11-01T07:51:49.289Z,99305.27
2018-11-01T07:54:27.783Z,99307.30
2018-11-01T07:56:58.905Z,99307.92
2018-11-01T07:59:29.457Z,99248.69
2018-11-01T08:02:02.205Z,99311.32
2018-11-01T08:04:32.489Z,99318.88
2018-11-01T08:07:02.803Z,99324.73
2018-11-01T08:09:35.208Z,99315.70
2018-11-01T08:12:05.488Z,99293.47
2018-11-01T08:14:34.869Z,99323.97
2018-11-01T08:17:05.356Z,99309.57
2018-11-01T08:19:43.752Z,99321.16
2018-11-01T08:22:20.469Z,99311.59
2018-11-01T08:24:58.813Z,99311.19
2018-11-01T08:27:29.363Z,99303.92
2018-11-01T08:30:00.769Z,99310.00
2018-11-01T08:32:35.547Z,99310.20
2018-11-01T08:35:14.009Z,99290.59
2018-11-01T08:37:46.943Z,99295.95
2018-11-01T08:40:18.526Z,99285.77
2018-11-01T08:42:48.933Z,99297.20
2018-11-01T08:45:18.397Z,99299.59
2018-11-01T08:47:53.747Z,99310.22
2018-11-01T08:50:28.038Z,99292.57
2018-11-01T08:52:57.511Z,99312.13
2018-11-01T08:55:28.824Z,99304.59
2018-11-01T08:57:59.019Z,99302.86
2018-11-01T09:00:35.265Z,99305.23
2018-11-01T09:03:05.620Z,99309.05
2018-11-01T09:05:38.230Z,99302.75
2018-11-01T09:08:13.503Z,99309.25
2018-11-01T09:10:44.941Z,99309.34
2018-11-01T09:13:16.225Z,99324.14
2018-11-01T09:15:46.797Z,99311.78
2018-11-01T09:18:17.026Z,99314.41
2018-11-01T09:20:46.435Z,99318.95
2018-11-01T09:23:15.879Z,99333.21
2018-11-01T09:25:45.252Z,99344.43
2018-11-01T09:28:15.864Z,99338.76
2018-11-01T09:30:46.193Z,99339.47
2018-11-01T09:33:19.458Z,99358.06
2018-11-01T09:35:49.484Z,99373.30
2018-11-01T09:38:19.075Z,99358.34
2018-11-01T09:40:53.269Z,99361.00
2018-11-01T09:43:23.106Z,99360.79
2018-11-01T09:45:53.208Z,99357.27
2018-11-01T09:48:24.615Z,99361.84
2018-11-01T09:50:55.147Z,99362.58
2018-11-01T09:53:25.475Z,99357.69
2018-11-01T09:55:55.222Z,99359.96
2018-11-01T09:58:25.817Z,99356.55
2018-11-01T10:00:57.499Z,99365.30
2018-11-01T10:03:30.110Z,99370.25
2018-11-01T10:06:01.701Z,99369.32
2018-11-01T10:08:31.245Z,99376.34
2018-11-01T10:11:02.430Z,99360.95
2018-11-01T10:13:35.177Z,99380.55
2018-11-01T10:16:05.319Z,99390.27
2018-11-01T10:18:38.426Z,99401.94
2018-11-01T10:21:08.295Z,99402.17
2018-11-01T10:23:39.234Z,99398.66
2018-11-01T10:26:09.181Z,99396.22
2018-11-01T10:28:42.093Z,99375.58
2018-11-01T10:31:11.481Z,99371.91
2018-11-01T10:33:42.658Z,99373.25
2018-11-01T10:36:14.515Z,99365.52
2018-11-01T10:38:44.926Z,99362.84
2018-11-01T10:41:16.470Z,99361.80
2018-11-01T10:43:48.250Z,99355.62
2018-11-01T10:46:18.594Z,99342.45
2018-11-01T10:48:50.429Z,99331.88
2018-11-01T10:51:19.897Z,99345.14
2018-11-01T10:53:49.341Z,99260.03
2018-11-01T10:56:19.259Z,99346.48
2018-11-01T10:58:49.708Z,99352.34
2018-11-01T11:01:24.225Z,99351.35
2018-11-01T11:03:53.569Z,99343.04
2018-11-01T11:06:23.076Z,99354.05
2018-11-01T11:08:52.560Z,99344.98
2018-11-01T11:11:22.230Z,99300.63
2018-11-01T11:13:52.737Z,99325.28
2018-11-01T11:16:22.228Z,99323.52
2018-11-01T11:18:51.678Z,99311.89
2018-11-01T11:21:21.175Z,99292.30
2018-11-01T11:23:51.013Z,99304.83
2018-11-01T11:26:20.561Z,99285.34
2018-11-01T11:28:50.569Z,99276.92
2018-11-01T11:31:20.669Z,99269.35
2018-11-01T11:33:50.603Z,99251.16
2018-11-01T11:36:26.556Z,99156.27
2018-11-01T11:38:57.426Z,99245.55
2018-11-01T11:41:26.957Z,99254.67
2018-11-01T11:43:59.343Z,99252.48
2018-11-01T11:46:29.533Z,99282.46
2018-11-01T11:49:00.672Z,99286.44
2018-11-01T11:51:30.202Z,99275.40
2018-11-01T11:53:59.892Z,99278.66
2018-11-01T11:56:32.930Z,99273.69
2018-11-01T11:59:04.317Z,99273.13
2018-11-01T12:01:34.450Z,99263.45
2018-11-01T12:04:04.594Z,99269.16
2018-11-01T12:06:34.603Z,99262.12
2018-11-01T12:09:10.254Z,99260.55
2018-11-01T12:11:40.551Z,99271.88
2018-11-01T12:14:10.007Z,99275.47
2018-11-01T12:16:40.422Z,99269.48
2018-11-01T12:19:09.806Z,99266.80
2018-11-01T12:21:40.838Z,99262.47
2018-11-01T12:24:12.763Z,99241.12
2018-11-01T12:26:43.841Z,99264.40
2018-11-01T12:29:13.221Z,99257.79
2018-11-01T12:31:44.654Z,99284.55
2018-11-01T12:34:16.252Z,99302.34
2018-11-01T12:36:47.238Z,99307.94
2018-11-01T12:39:18.036Z,99311.26
2018-11-01T12:41:48.173Z,99315.19
2018-11-01T12:44:18.424Z,99326.50
2018-11-01T12:46:48.403Z,99338.00
2018-11-01T12:49:20.556Z,99337.08
2018-11-01T12:51:51.492Z,99342.95
2018-11-01T12:54:25.456Z,99364.52
2018-11-01T12:56:56.348Z,99354.61
2018-11-01T12:59:26.572Z,99354.22
2018-11-01T13:01:57.221Z,99333.58
2018-11-01T13:04:27.541Z,99330.55
2018-11-01T13:06:58.513Z,99335.47
2018-11-01T13:09:28.380Z,99337.63
2018-11-01T13:12:02.713Z,99337.52
2018-11-01T13:14:32.453Z,99348.38
2018-11-01T13:17:02.664Z,99354.61
2018-11-01T13:19:33.918Z,99357.91
2018-11-01T13:22:04.454Z,99352.56
2018-11-01T13:24:34.793Z,99354.82
2018-11-01T13:27:20.590Z,99359.16
2018-11-01T13:29:51.996Z,99363.80
2018-11-01T13:32:21.515Z,99359.31
2018-11-01T13:34:52.079Z,99371.27
2018-11-01T13:37:21.620Z,99377.34
2018-11-01T13:39:51.457Z,99380.73
2018-11-01T13:42:23.793Z,99374.96
2018-11-01T13:44:53.809Z,99383.75
2018-11-01T13:47:23.307Z,99376.85
2018-11-01T13:49:52.851Z,99382.02
2018-11-01T13:52:24.329Z,99379.83
2018-11-01T13:54:53.858Z,99386.81
2018-11-01T13:57:24.561Z,99395.84
2018-11-01T13:59:54.126Z,99397.09
2018-11-01T14:02:25.266Z,99394.80
2018-11-01T14:04:55.341Z,99407.03
2018-11-01T14:07:25.660Z,99398.21
2018-11-01T14:09:55.892Z,99415.91
2018-11-01T14:12:27.001Z,99410.91
2018-11-01T14:14:56.581Z,99414.28
2018-11-01T14:17:26.092Z,99417.95
2018-11-01T14:19:56.491Z,99410.84
2018-11-01T14:22:26.878Z,99410.86
2018-11-01T14:24:56.385Z,99410.23
2018-11-01T14:27:27.438Z,99417.88
2018-11-01T14:29:56.913Z,99428.32
2018-11-01T14:32:26.342Z,99419.94
2018-11-01T14:34:55.765Z,99408.91
2018-11-01T14:37:27.357Z,99392.02
2018-11-01T14:39:58.967Z,99369.05
2018-11-01T14:42:29.397Z,99396.91
2018-11-01T14:44:58.833Z,99404.58
2018-11-01T14:47:29.067Z,99407.01
2018-11-01T14:49:58.490Z,99420.00
2018-11-01T14:52:28.437Z,99415.80
2018-11-01T14:54:59.753Z,99317.78
2018-11-01T14:57:30.321Z,99423.61
2018-11-01T14:59:59.766Z,99435.66
2018-11-01T15:02:31.234Z,99434.19
2018-11-01T15:05:01.265Z,99426.95
2018-11-01T15:07:31.717Z,99398.39
2018-11-01T15:10:02.848Z,99374.59
2018-11-01T15:12:32.311Z,99387.48
2018-11-01T15:15:02.194Z,99363.84
2018-11-01T15:17:32.421Z,99416.95
2018-11-01T15:20:02.695Z,99419.89
2018-11-01T15:22:32.437Z,99422.81
2018-11-01T15:25:01.844Z,99415.45
2018-11-01T15:27:31.524Z,99407.21
2018-11-01T15:30:06.116Z,99399.00
2018-11-01T15:32:35.681Z,99393.88
2018-11-01T15:35:05.948Z,99404.52
2018-11-01T15:37:35.953Z,99404.85
2018-11-01T15:40:07.240Z,99406.41
2018-11-01T15:42:39.289Z,99411.88
2018-11-01T15:45:11.579Z,99397.80
2018-11-01T15:47:42.092Z,99387.90
2018-11-01T15:50:14.462Z,99393.07
2018-11-01T15:52:44.072Z,99374.36
2018-11-01T15:55:13.522Z,99386.47
2018-11-01T15:57:44.834Z,99380.11
2018-11-01T16:00:16.194Z,99398.44
2018-11-01T16:02:46.537Z,99376.55
2018-11-01T16:05:18.210Z,99382.37
2018-11-01T16:07:49.446Z,99393.84
2018-11-01T16:10:19.888Z,99394.27
2018-11-01T16:12:50.601Z,99396.10
2018-11-01T16:15:21.571Z,99398.17
2018-11-01T16:17:51.389Z,99420.14
2018-11-01T16:20:21.188Z,99427.07
2018-11-01T16:22:50.818Z,99427.61
2018-11-01T16:25:20.595Z,99434.38
2018-11-01T16:27:50.208Z,99440.58
2018-11-01T16:30:21.657Z,99440.68
2018-11-01T16:32:51.129Z,99437.80
2018-11-01T16:35:20.554Z,99438.13
2018-11-01T16:37:50.880Z,99445.66
2018-11-01T16:40:22.753Z,99437.75
2018-11-01T16:42:53.553Z,99430.58
2018-11-01T16:45:25.609Z,99433.23
2018-11-01T16:47:55.041Z,99438.70
2018-11-01T16:50:26.688Z,99434.72
2018-11-01T16:52:57.413Z,99440.80
2018-11-01T16:55:26.837Z,99431.78
2018-11-01T16:57:56.266Z,99397.41
2018-11-01T17:00:26.652Z,99438.16
2018-11-01T17:03:03.445Z,99438.22
2018-11-01T17:05:34.781Z,99448.58
2018-11-01T17:08:04.362Z,99448.09
2018-11-01T17:10:35.832Z,99465.81
2018-11-01T17:13:05.893Z,99472.28
2018-11-01T17:15:35.624Z,99487.45
2018-11-01T17:18:12.505Z,99484.16
2018-11-01T17:20:43.205Z,99488.33
2018-11-01T17:23:14.529Z,99485.13
2018-11-01T17:25:44.577Z,99506.13
2018-11-01T17:28:14.840Z,99504.55
2018-11-01T17:30:44.869Z,99512.19
2018-11-01T17:33:16.166Z,99510.33
2018-11-01T17:35:45.660Z,99514.03
2018-11-01T17:38:15.577Z,99512.93
2018-11-01T17:40:44.993Z,99505.45
2018-11-01T17:43:15.653Z,99513.75
2018-11-01T17:45:47.609Z,99518.65
2018-11-01T17:48:17.282Z,99527.87
2018-11-01T17:50:46.665Z,99546.23
2018-11-01T17:53:16.397Z,99546.97
2018-11-01T17:55:46.406Z,99551.91
2018-11-01T17:58:19.545Z,99548.98
2018-11-01T18:00:50.095Z,99551.16
2018-11-01T18:03:19.485Z,99553.08
2018-11-01T18:05:48.901Z,99565.28
2018-11-01T18:08:19.664Z,99558.05
2018-11-01T18:10:49.327Z,99557.22
2018-11-01T18:13:24.133Z,99553.64
2018-11-01T18:15:55.170Z,99548.28
2018-11-01T18:18:28.644Z,99551.45
2018-11-01T18:20:58.382Z,99549.47
2018-11-01T18:23:27.962Z,99545.55
2018-11-01T18:25:58.692Z,99539.78
2018-11-01T18:28:28.385Z,99546.22
2018-11-01T18:33:36.484Z,99553.33
2018-11-01T18:36:08.431Z,99562.19
2018-11-01T18:38:37.869Z,99567.37
2018-11-01T18:41:08.251Z,99573.80
2018-11-01T18:43:38.538Z,99576.84
2018-11-01T18:46:09.247Z,99586.09
2018-11-01T18:48:40.101Z,99578.92
2018-11-01T18:51:12.355Z,99575.67
2018-11-01T18:53:42.023Z,99576.55
2018-11-01T18:56:13.360Z,99581.59
2018-11-01T18:58:45.936Z,99583.49
2018-11-01T19:01:18.199Z,99591.47
2018-11-01T19:03:49.400Z,99594.50
2018-11-01T19:06:22.578Z,99598.89
2018-11-01T19:08:53.757Z,99603.21
2018-11-01T19:11:26.685Z,99603.98
2018-11-01T19:14:01.496Z,99609.91
2018-11-01T19:16:33.107Z,99613.03
2018-11-01T19:19:02.565Z,99610.89
2018-11-01T19:21:32.085Z,99609.70
2018-11-01T19:24:04.465Z,99610.03
2018-11-01T19:26:35.860Z,99610.03
2018-11-01T19:29:05.860Z,99612.31
2018-11-01T19:31:36.817Z,99608.77
2018-11-01T19:34:08.266Z,99619.03
2018-11-01T19:36:41.641Z,99619.05
2018-11-01T19:39:13.223Z,99612.63
2018-11-01T19:41:44.422Z,99618.23
2018-11-01T19:44:13.848Z,99613.88
2018-11-01T19:46:44.347Z,99615.23
2018-11-01T19:49:16.097Z,99625.06
2018-11-01T19:51:53.244Z,99628.19
2018-11-01T19:54:23.880Z,99622.69
2018-11-01T19:56:53.545Z,99629.75
2018-11-01T19:59:25.756Z,99634.47
2018-11-01T20:01:59.724Z,99637.78
2018-11-01T20:04:30.649Z,99636.69
2018-11-01T20:07:02.602Z,99630.08
2018-11-01T20:09:32.030Z,99645.92
2018-11-01T20:12:02.755Z,99651.03
2018-11-01T20:14:32.558Z,99650.91
2018-11-01T20:17:01.963Z,99656.64
2018-11-01T20:19:31.415Z,99671.65
2018-11-01T20:22:01.076Z,99567.81
2018-11-01T20:24:33.582Z,99684.52
2018-11-01T20:27:03.418Z,99659.39
2018-11-01T20:29:36.798Z,99690.45
2018-11-01T20:32:07.737Z,99701.66
2018-11-01T20:34:44.862Z,99707.34
2018-11-01T20:37:16.479Z,99715.25
2018-11-01T20:39:47.625Z,99706.49
2018-11-01T20:42:17.962Z,99702.45
2018-11-01T20:44:49.966Z,99715.47
2018-11-01T20:47:20.857Z,99721.14
2018-11-01T20:49:50.385Z,99713.75
2018-11-01T20:52:20.854Z,99715.84
2018-11-01T20:54:50.317Z,99710.99
2018-11-01T20:57:20.773Z,99709.39
2018-11-01T20:59:52.156Z,99685.59
2018-11-01T21:02:21.650Z,99715.78
2018-11-01T21:04:51.922Z,99705.57
2018-11-01T21:07:21.541Z,99708.62
2018-11-01T21:09:52.428Z,99707.92
2018-11-01T21:12:22.781Z,99711.61
2018-11-01T21:14:52.900Z,99707.77
2018-11-01T21:17:22.392Z,99711.55
2018-11-01T21:19:52.525Z,99704.64
2018-11-01T21:22:24.616Z,99717.09
2018-11-01T21:24:55.928Z,99718.94
2018-11-01T21:27:27.813Z,99714.71
2018-11-01T21:30:00.716Z,99709.47
2018-11-01T21:32:32.143Z,99714.77
2018-11-01T21:35:09.740Z,99716.17
2018-11-01T21:37:40.091Z,99735.47
2018-11-01T21:40:13.817Z,99728.65
2018-11-01T21:42:44.276Z,99727.52
2018-11-01T21:45:17.476Z,99650.19
2018-11-01T21:47:48.809Z,99742.05
2018-11-01T21:50:18.362Z,99716.84
2018-11-01T21:52:49.242Z,99637.21
2018-11-01T21:55:19.492Z,99731.31
2018-11-01T21:57:50.573Z,99726.59
2018-11-01T22:00:23.225Z,99738.40
2018-11-01T22:02:54.629Z,99746.41
2018-11-01T22:05:24.356Z,99744.33
2018-11-01T22:07:54.549Z,99741.70
2018-11-01T22:10:24.013Z,99745.52
2018-11-01T22:12:54.477Z,99744.84
2018-11-01T22:15:25.720Z,99751.77
2018-11-01T22:17:55.221Z,99757.81
2018-11-01T22:20:24.646Z,99752.92
2018-11-01T22:22:55.764Z,99747.08
2018-11-01T22:25:25.641Z,99760.33
2018-11-01T22:27:56.842Z,99762.72
2018-11-01T22:30:27.422Z,99752.34
2018-11-01T22:32:57.509Z,99761.22
2018-11-01T22:35:27.252Z,99755.60
2018-11-01T22:37:58.097Z,99756.16
2018-11-01T22:40:38.134Z,99761.97
2018-11-01T22:43:07.876Z,99758.70
2018-11-01T22:45:40.633Z,99764.91
2018-11-01T22:48:10.149Z,99768.31
2018-11-01T22:50:41.008Z,99761.77
2018-11-01T22:53:10.483Z,99752.89
2018-11-01T22:55:40.032Z,99745.73
2018-11-01T22:58:10.674Z,99740.77
2018-11-01T23:00:45.447Z,99734.17
2018-11-01T23:03:15.663Z,99715.39
2018-11-01T23:05:46.733Z,99712.09
2018-11-01T23:08:17.825Z,99722.16
2018-11-01T23:10:58.046Z,99719.80
2018-11-01T23:13:32.113Z,99711.87
2018-11-01T23:16:01.980Z,99713.93
2018-11-01T23:18:32.373Z,99725.43
2018-11-01T23:21:02.618Z,99735.68
2018-11-01T23:23:33.257Z,99740.56
2018-11-01T23:26:02.772Z,99738.59
2018-11-01T23:28:33.551Z,99738.73
2018-11-01T23:31:04.113Z,99744.58
2018-11-01T23:33:34.467Z,99739.04
2018-11-01T23:36:04.383Z,99744.23
2018-11-01T23:38:40.302Z,99749.77
2018-11-01T23:41:15.431Z,99760.06
2018-11-01T23:43:50.850Z,99767.22
2018-11-01T23:46:26.045Z,99784.94
2018-11-01T23:49:01.697Z,99797.77
2018-11-01T23:51:31.162Z,99787.71
2018-11-01T23:54:00.568Z,99800.95
2018-11-01T23:56:47.981Z,99801.04
2018-11-01T23:59:17.421Z,99807.28
